sensor_id;sensor_type;location;lat;lon;timestamp;temperature;humidity
53264;DHT22;39153;52.680;6.172;2024-03-23T00:53:47;6.20;99.90
53264;DHT22;39153;52.680;6.172;2024-03-23T00:56:13;6.10;99.90
53264;DHT22;39153;52.680;6.172;2024-03-23T00:58:39;6.10;99.90
53264;DHT22;39153;52.680;6.172;2024-03-23T01:01:04;6.20;99.90
53264;DHT22;39153;52.680;6.172;2024-03-23T01:03:30;6.20;99.90
53264;DHT22;39153;52.680;6.172;2024-03-23T01:06:00;6.20;99.90
53264;DHT22;39153;52.680;6.172;2024-03-23T01:08:26;6.10;99.90
53264;DHT22;39153;52.680;6.172;2024-03-23T01:10:59;5.90;99.90
53264;DHT22;39153;52.680;6.172;2024-03-23T01:13:25;6.00;99.90
53264;DHT22;39153;52.680;6.172;2024-03-23T01:15:52;5.90;99.90
53264;DHT22;39153;52.680;6.172;2024-03-23T01:18:19;5.90;99.90
53264;DHT22;39153;52.680;6.172;2024-03-23T01:20:45;5.90;99.90
53264;DHT22;39153;52.680;6.172;2024-03-23T01:23:11;5.80;99.90
53264;DHT22;39153;52.680;6.172;2024-03-23T01:25:37;6.00;99.90
53264;DHT22;39153;52.680;6.172;2024-03-23T01:28:03;5.80;99.90
53264;DHT22;39153;52.680;6.172;2024-03-23T01:30:29;5.90;99.90
53264;DHT22;39153;52.680;6.172;2024-03-23T01:32:56;5.80;99.90
53264;DHT22;39153;52.680;6.172;2024-03-23T01:35:21;6.00;99.90
53264;DHT22;39153;52.680;6.172;2024-03-23T01:37:47;6.00;99.90
53264;DHT22;39153;52.680;6.172;2024-03-23T01:40:13;6.00;99.90
53264;DHT22;39153;52.680;6.172;2024-03-23T01:42:39;5.80;99.90
53264;DHT22;39153;52.680;6.172;2024-03-23T01:45:09;5.80;99.90
53264;DHT22;39153;52.680;6.172;2024-03-23T01:47:37;5.80;99.90
53264;DHT22;39153;52.680;6.172;2024-03-23T01:50:03;5.80;99.90
53264;DHT22;39153;52.680;6.172;2024-03-23T01:52:29;5.80;99.90
53264;DHT22;39153;52.680;6.172;2024-03-23T01:54:55;5.80;99.90
53264;DHT22;39153;52.680;6.172;2024-03-23T01:57:21;5.60;99.90
53264;DHT22;39153;52.680;6.172;2024-03-23T01:59:47;5.60;99.90
53264;DHT22;39153;52.680;6.172;2024-03-23T02:02:13;5.60;99.90
53264;DHT22;39153;52.680;6.172;2024-03-23T02:04:39;5.60;99.90
53264;DHT22;39153;52.680;6.172;2024-03-23T02:07:07;5.40;99.90
53264;DHT22;39153;52.680;6.172;2024-03-23T02:09:33;5.60;99.90
53264;DHT22;39153;52.680;6.172;2024-03-23T02:11:58;5.30;99.90
53264;DHT22;39153;52.680;6.172;2024-03-23T02:14:24;5.40;99.90
53264;DHT22;39153;52.680;6.172;2024-03-23T02:16:50;5.30;99.90
53264;DHT22;39153;52.680;6.172;2024-03-23T02:19:15;5.30;99.90
53264;DHT22;39153;52.680;6.172;2024-03-23T02:21:41;5.20;99.90
53264;DHT22;39153;52.680;6.172;2024-03-23T02:24:07;5.10;99.90
53264;DHT22;39153;52.680;6.172;2024-03-23T02:26:32;5.00;99.90
53264;DHT22;39153;52.680;6.172;2024-03-23T02:28:58;4.90;99.90
53264;DHT22;39153;52.680;6.172;2024-03-23T02:31:23;5.10;99.90
53264;DHT22;39153;52.680;6.172;2024-03-23T02:33:49;5.00;99.90
53264;DHT22;39153;52.680;6.172;2024-03-23T02:36:15;4.90;99.90
53264;DHT22;39153;52.680;6.172;2024-03-23T02:38:40;4.90;99.90
53264;DHT22;39153;52.680;6.172;2024-03-23T02:41:06;4.90;99.90
53264;DHT22;39153;52.680;6.172;2024-03-23T02:43:32;4.80;99.90
53264;DHT22;39153;52.680;6.172;2024-03-23T02:45:57;4.80;99.90
53264;DHT22;39153;52.680;6.172;2024-03-23T02:48:23;4.60;99.90
53264;DHT22;39153;52.680;6.172;2024-03-23T02:50:49;4.80;99.90
53264;DHT22;39153;52.680;6.172;2024-03-23T02:53:15;4.80;99.90
53264;DHT22;39153;52.680;6.172;2024-03-23T02:55:41;4.70;99.90
53264;DHT22;39153;52.680;6.172;2024-03-23T02:58:07;4.60;99.90
53264;DHT22;39153;52.680;6.172;2024-03-23T03:00:32;4.50;99.90
53264;DHT22;39153;52.680;6.172;2024-03-23T03:02:58;4.70;99.90
53264;DHT22;39153;52.680;6.172;2024-03-23T03:05:24;4.60;99.90
53264;DHT22;39153;52.680;6.172;2024-03-23T03:07:50;4.80;99.90
53264;DHT22;39153;52.680;6.172;2024-03-23T03:10:16;4.70;99.90
53264;DHT22;39153;52.680;6.172;2024-03-23T03:12:41;4.50;99.90
53264;DHT22;39153;52.680;6.172;2024-03-23T03:15:08;4.60;99.90
53264;DHT22;39153;52.680;6.172;2024-03-23T03:17:34;4.50;99.90
53264;DHT22;39153;52.680;6.172;2024-03-23T03:20:00;4.40;99.90
53264;DHT22;39153;52.680;6.172;2024-03-23T03:22:26;4.50;99.90
53264;DHT22;39153;52.680;6.172;2024-03-23T03:24:51;4.50;99.90
53264;DHT22;39153;52.680;6.172;2024-03-23T03:27:17;4.40;99.90
53264;DHT22;39153;52.680;6.172;2024-03-23T03:29:43;4.50;99.90
53264;DHT22;39153;52.680;6.172;2024-03-23T03:32:08;4.50;99.90
53264;DHT22;39153;52.680;6.172;2024-03-23T03:34:34;4.30;99.90
53264;DHT22;39153;52.680;6.172;2024-03-23T03:37:01;4.20;99.90
53264;DHT22;39153;52.680;6.172;2024-03-23T03:39:27;4.10;99.90
53264;DHT22;39153;52.680;6.172;2024-03-23T03:41:52;4.30;99.90
53264;DHT22;39153;52.680;6.172;2024-03-23T03:44:18;4.20;99.90
53264;DHT22;39153;52.680;6.172;2024-03-23T03:46:44;4.20;99.90
53264;DHT22;39153;52.680;6.172;2024-03-23T03:49:09;4.10;99.90
53264;DHT22;39153;52.680;6.172;2024-03-23T03:51:35;4.00;99.90
53264;DHT22;39153;52.680;6.172;2024-03-23T03:54:01;4.00;99.90
53264;DHT22;39153;52.680;6.172;2024-03-23T03:56:26;4.00;99.90
53264;DHT22;39153;52.680;6.172;2024-03-23T03:58:53;4.10;99.90
53264;DHT22;39153;52.680;6.172;2024-03-23T04:01:19;4.00;99.90
53264;DHT22;39153;52.680;6.172;2024-03-23T04:03:44;3.90;99.90
53264;DHT22;39153;52.680;6.172;2024-03-23T04:06:10;3.90;99.90
53264;DHT22;39153;52.680;6.172;2024-03-23T04:08:36;3.70;99.90
53264;DHT22;39153;52.680;6.172;2024-03-23T04:11:02;3.90;99.90
53264;DHT22;39153;52.680;6.172;2024-03-23T04:13:27;3.90;99.90
53264;DHT22;39153;52.680;6.172;2024-03-23T04:15:56;3.70;99.90
53264;DHT22;39153;52.680;6.172;2024-03-23T04:18:22;3.80;99.90
53264;DHT22;39153;52.680;6.172;2024-03-23T04:20:49;3.70;99.90
53264;DHT22;39153;52.680;6.172;2024-03-23T04:23:15;3.80;99.90
53264;DHT22;39153;52.680;6.172;2024-03-23T04:25:40;3.70;99.90
53264;DHT22;39153;52.680;6.172;2024-03-23T04:28:06;3.80;99.90
53264;DHT22;39153;52.680;6.172;2024-03-23T04:30:32;3.70;99.90
53264;DHT22;39153;52.680;6.172;2024-03-23T04:32:58;3.70;99.90
53264;DHT22;39153;52.680;6.172;2024-03-23T04:35:24;3.70;99.90
53264;DHT22;39153;52.680;6.172;2024-03-23T04:37:53;3.60;99.90
53264;DHT22;39153;52.680;6.172;2024-03-23T04:40:21;3.60;99.90
53264;DHT22;39153;52.680;6.172;2024-03-23T04:42:47;3.70;99.90
53264;DHT22;39153;52.680;6.172;2024-03-23T04:45:12;3.70;99.90
53264;DHT22;39153;52.680;6.172;2024-03-23T04:47:38;3.60;99.90
53264;DHT22;39153;52.680;6.172;2024-03-23T04:50:05;3.70;99.90
53264;DHT22;39153;52.680;6.172;2024-03-23T04:52:31;3.50;99.90
53264;DHT22;39153;52.680;6.172;2024-03-23T04:54:57;3.60;99.90
53264;DHT22;39153;52.680;6.172;2024-03-23T04:57:23;3.50;99.90
53264;DHT22;39153;52.680;6.172;2024-03-23T04:59:48;3.40;99.90
53264;DHT22;39153;52.680;6.172;2024-03-23T05:02:14;3.60;99.90
53264;DHT22;39153;52.680;6.172;2024-03-23T05:04:41;3.40;99.90
53264;DHT22;39153;52.680;6.172;2024-03-23T05:07:07;3.50;99.90
53264;DHT22;39153;52.680;6.172;2024-03-23T05:09:32;3.50;99.90
53264;DHT22;39153;52.680;6.172;2024-03-23T05:11:59;3.60;99.90
53264;DHT22;39153;52.680;6.172;2024-03-23T05:14:26;3.50;99.90
53264;DHT22;39153;52.680;6.172;2024-03-23T05:16:52;3.60;99.90
53264;DHT22;39153;52.680;6.172;2024-03-23T05:19:18;3.50;99.90
53264;DHT22;39153;52.680;6.172;2024-03-23T05:21:44;3.40;99.90
53264;DHT22;39153;52.680;6.172;2024-03-23T05:24:10;3.40;99.90
53264;DHT22;39153;52.680;6.172;2024-03-23T05:26:36;3.50;99.90
53264;DHT22;39153;52.680;6.172;2024-03-23T05:29:02;3.40;99.90
53264;DHT22;39153;52.680;6.172;2024-03-23T05:31:29;3.40;99.90
53264;DHT22;39153;52.680;6.172;2024-03-23T05:33:55;3.50;99.90
53264;DHT22;39153;52.680;6.172;2024-03-23T05:36:21;3.30;99.90
53264;DHT22;39153;52.680;6.172;2024-03-23T05:38:47;3.50;99.90
53264;DHT22;39153;52.680;6.172;2024-03-23T05:41:13;3.40;99.90
53264;DHT22;39153;52.680;6.172;2024-03-23T05:43:39;3.60;99.90
53264;DHT22;39153;52.680;6.172;2024-03-23T05:46:05;4.10;99.90
53264;DHT22;39153;52.680;6.172;2024-03-23T05:48:31;3.50;99.90
53264;DHT22;39153;52.680;6.172;2024-03-23T05:50:57;3.80;99.90
53264;DHT22;39153;52.680;6.172;2024-03-23T05:53:24;3.90;99.90
53264;DHT22;39153;52.680;6.172;2024-03-23T05:55:51;3.90;99.90
53264;DHT22;39153;52.680;6.172;2024-03-23T05:58:19;3.70;99.90
53264;DHT22;39153;52.680;6.172;2024-03-23T06:00:46;3.80;99.90
53264;DHT22;39153;52.680;6.172;2024-03-23T06:03:11;4.00;99.90
53264;DHT22;39153;52.680;6.172;2024-03-23T06:05:37;3.80;99.90
53264;DHT22;39153;52.680;6.172;2024-03-23T06:08:04;4.00;99.90
53264;DHT22;39153;52.680;6.172;2024-03-23T06:10:30;3.90;99.90
53264;DHT22;39153;52.680;6.172;2024-03-23T06:12:57;4.00;99.90
53264;DHT22;39153;52.680;6.172;2024-03-23T06:15:24;3.90;99.90
53264;DHT22;39153;52.680;6.172;2024-03-23T06:17:49;3.80;99.90
53264;DHT22;39153;52.680;6.172;2024-03-23T06:20:15;4.00;99.90
53264;DHT22;39153;52.680;6.172;2024-03-23T06:22:41;3.90;99.90
53264;DHT22;39153;52.680;6.172;2024-03-23T06:25:07;4.00;99.90
53264;DHT22;39153;52.680;6.172;2024-03-23T06:27:33;4.00;99.90
53264;DHT22;39153;52.680;6.172;2024-03-23T06:30:00;4.10;99.90
53264;DHT22;39153;52.680;6.172;2024-03-23T06:32:25;3.80;99.90
53264;DHT22;39153;52.680;6.172;2024-03-23T06:34:51;4.00;99.90
53264;DHT22;39153;52.680;6.172;2024-03-23T06:37:17;4.10;99.90
53264;DHT22;39153;52.680;6.172;2024-03-23T06:39:43;4.10;99.90
53264;DHT22;39153;52.680;6.172;2024-03-23T06:42:08;4.20;99.90
53264;DHT22;39153;52.680;6.172;2024-03-23T06:44:34;4.10;99.90
53264;DHT22;39153;52.680;6.172;2024-03-23T06:47:00;4.30;99.90
53264;DHT22;39153;52.680;6.172;2024-03-23T06:49:25;4.40;99.90
53264;DHT22;39153;52.680;6.172;2024-03-23T06:51:51;4.20;99.90
53264;DHT22;39153;52.680;6.172;2024-03-23T06:54:18;4.30;99.90
53264;DHT22;39153;52.680;6.172;2024-03-23T06:56:44;4.80;99.90
53264;DHT22;39153;52.680;6.172;2024-03-23T06:59:10;4.60;99.90
53264;DHT22;39153;52.680;6.172;2024-03-23T07:01:36;5.10;99.90
53264;DHT22;39153;52.680;6.172;2024-03-23T07:04:02;5.30;99.90
53264;DHT22;39153;52.680;6.172;2024-03-23T07:06:29;5.50;99.90
53264;DHT22;39153;52.680;6.172;2024-03-23T07:08:55;5.60;99.90
53264;DHT22;39153;52.680;6.172;2024-03-23T07:11:21;5.90;99.90
53264;DHT22;39153;52.680;6.172;2024-03-23T07:13:50;5.80;99.90
53264;DHT22;39153;52.680;6.172;2024-03-23T07:16:16;5.90;99.90
53264;DHT22;39153;52.680;6.172;2024-03-23T07:18:41;5.90;99.90
53264;DHT22;39153;52.680;6.172;2024-03-23T07:21:07;5.70;99.90
53264;DHT22;39153;52.680;6.172;2024-03-23T07:23:33;5.80;99.90
53264;DHT22;39153;52.680;6.172;2024-03-23T07:26:00;5.60;99.90
53264;DHT22;39153;52.680;6.172;2024-03-23T07:28:26;5.60;99.90
53264;DHT22;39153;52.680;6.172;2024-03-23T07:31:01;5.60;99.90
53264;DHT22;39153;52.680;6.172;2024-03-23T07:33:27;5.80;99.90
53264;DHT22;39153;52.680;6.172;2024-03-23T07:35:53;5.60;99.90
53264;DHT22;39153;52.680;6.172;2024-03-23T07:38:19;5.50;99.90
53264;DHT22;39153;52.680;6.172;2024-03-23T07:40:45;5.60;99.90
53264;DHT22;39153;52.680;6.172;2024-03-23T07:43:10;5.60;99.90
53264;DHT22;39153;52.680;6.172;2024-03-23T07:45:36;5.70;99.90
53264;DHT22;39153;52.680;6.172;2024-03-23T07:48:03;5.80;99.90
53264;DHT22;39153;52.680;6.172;2024-03-23T07:50:29;5.90;99.90
53264;DHT22;39153;52.680;6.172;2024-03-23T07:52:55;5.80;99.90
53264;DHT22;39153;52.680;6.172;2024-03-23T07:55:21;5.90;99.90
53264;DHT22;39153;52.680;6.172;2024-03-23T07:57:47;6.00;99.90
53264;DHT22;39153;52.680;6.172;2024-03-23T08:00:13;6.20;99.90
53264;DHT22;39153;52.680;6.172;2024-03-23T08:02:39;6.20;99.90
53264;DHT22;39153;52.680;6.172;2024-03-23T08:05:05;6.20;99.90
53264;DHT22;39153;52.680;6.172;2024-03-23T08:07:31;6.20;99.90
53264;DHT22;39153;52.680;6.172;2024-03-23T08:09:57;6.20;99.90
53264;DHT22;39153;52.680;6.172;2024-03-23T08:12:24;6.30;99.90
53264;DHT22;39153;52.680;6.172;2024-03-23T08:14:50;6.40;99.90
53264;DHT22;39153;52.680;6.172;2024-03-23T08:17:15;6.50;99.90
53264;DHT22;39153;52.680;6.172;2024-03-23T08:19:41;6.50;99.90
53264;DHT22;39153;52.680;6.172;2024-03-23T08:22:07;6.50;99.90
53264;DHT22;39153;52.680;6.172;2024-03-23T08:24:34;6.50;99.90
53264;DHT22;39153;52.680;6.172;2024-03-23T08:27:00;6.50;99.90
53264;DHT22;39153;52.680;6.172;2024-03-23T08:29:26;6.40;99.90
53264;DHT22;39153;52.680;6.172;2024-03-23T08:31:51;6.30;99.90
53264;DHT22;39153;52.680;6.172;2024-03-23T08:34:17;6.20;99.90
53264;DHT22;39153;52.680;6.172;2024-03-23T08:36:43;6.10;99.90
53264;DHT22;39153;52.680;6.172;2024-03-23T08:39:09;6.10;99.90
53264;DHT22;39153;52.680;6.172;2024-03-23T08:41:34;6.30;99.90
53264;DHT22;39153;52.680;6.172;2024-03-23T08:44:00;6.00;99.90
53264;DHT22;39153;52.680;6.172;2024-03-23T08:46:26;5.90;99.90
53264;DHT22;39153;52.680;6.172;2024-03-23T08:48:53;5.90;99.90
53264;DHT22;39153;52.680;6.172;2024-03-23T08:51:18;5.90;99.90
53264;DHT22;39153;52.680;6.172;2024-03-23T08:53:44;5.80;99.90
53264;DHT22;39153;52.680;6.172;2024-03-23T08:56:11;5.90;99.90
53264;DHT22;39153;52.680;6.172;2024-03-23T08:58:38;5.90;99.90
53264;DHT22;39153;52.680;6.172;2024-03-23T09:01:11;6.10;99.90
53264;DHT22;39153;52.680;6.172;2024-03-23T09:03:40;6.20;99.90
53264;DHT22;39153;52.680;6.172;2024-03-23T09:06:08;6.40;99.90
53264;DHT22;39153;52.680;6.172;2024-03-23T09:08:34;6.60;99.90
53264;DHT22;39153;52.680;6.172;2024-03-23T09:11:05;6.80;99.90
53264;DHT22;39153;52.680;6.172;2024-03-23T09:13:33;7.00;99.90
53264;DHT22;39153;52.680;6.172;2024-03-23T09:15:58;7.10;99.90
53264;DHT22;39153;52.680;6.172;2024-03-23T09:18:24;7.30;99.90
53264;DHT22;39153;52.680;6.172;2024-03-23T09:20:50;7.50;99.90
53264;DHT22;39153;52.680;6.172;2024-03-23T09:23:15;7.60;99.90
53264;DHT22;39153;52.680;6.172;2024-03-23T09:25:41;7.60;99.90
53264;DHT22;39153;52.680;6.172;2024-03-23T09:28:07;7.50;99.90
53264;DHT22;39153;52.680;6.172;2024-03-23T09:30:36;7.60;99.90
53264;DHT22;39153;52.680;6.172;2024-03-23T09:33:08;7.70;99.90
53264;DHT22;39153;52.680;6.172;2024-03-23T09:35:37;7.80;99.90
53264;DHT22;39153;52.680;6.172;2024-03-23T09:38:03;8.00;99.90
53264;DHT22;39153;52.680;6.172;2024-03-23T09:40:29;8.20;99.90
53264;DHT22;39153;52.680;6.172;2024-03-23T09:42:54;8.40;99.90
53264;DHT22;39153;52.680;6.172;2024-03-23T09:45:24;8.50;99.90
53264;DHT22;39153;52.680;6.172;2024-03-23T09:47:52;8.50;99.90
53264;DHT22;39153;52.680;6.172;2024-03-23T09:50:18;8.30;99.90
53264;DHT22;39153;52.680;6.172;2024-03-23T09:52:46;8.00;99.90
53264;DHT22;39153;52.680;6.172;2024-03-23T09:55:12;7.70;99.90
53264;DHT22;39153;52.680;6.172;2024-03-23T09:57:37;7.80;99.90
53264;DHT22;39153;52.680;6.172;2024-03-23T10:00:04;7.50;99.90
53264;DHT22;39153;52.680;6.172;2024-03-23T10:02:29;7.30;99.90
53264;DHT22;39153;52.680;6.172;2024-03-23T10:04:55;7.30;99.90
53264;DHT22;39153;52.680;6.172;2024-03-23T10:07:22;7.40;99.90
53264;DHT22;39153;52.680;6.172;2024-03-23T10:09:48;7.30;99.90
53264;DHT22;39153;52.680;6.172;2024-03-23T10:12:18;7.50;99.90
53264;DHT22;39153;52.680;6.172;2024-03-23T10:14:44;7.40;99.90
53264;DHT22;39153;52.680;6.172;2024-03-23T10:17:22;7.50;99.90
53264;DHT22;39153;52.680;6.172;2024-03-23T10:19:51;7.60;99.90
53264;DHT22;39153;52.680;6.172;2024-03-23T10:22:23;7.80;99.90
53264;DHT22;39153;52.680;6.172;2024-03-23T10:24:52;8.00;99.90
53264;DHT22;39153;52.680;6.172;2024-03-23T10:27:20;8.20;99.90
53264;DHT22;39153;52.680;6.172;2024-03-23T10:29:46;8.40;99.90
53264;DHT22;39153;52.680;6.172;2024-03-23T10:32:13;8.40;99.90
53264;DHT22;39153;52.680;6.172;2024-03-23T10:34:39;8.50;99.90
53264;DHT22;39153;52.680;6.172;2024-03-23T10:37:06;8.60;99.90
53264;DHT22;39153;52.680;6.172;2024-03-23T10:39:42;8.60;99.90
53264;DHT22;39153;52.680;6.172;2024-03-23T10:42:09;8.50;99.90
53264;DHT22;39153;52.680;6.172;2024-03-23T10:44:38;8.30;99.90
53264;DHT22;39153;52.680;6.172;2024-03-23T10:47:05;8.20;99.90
53264;DHT22;39153;52.680;6.172;2024-03-23T10:49:32;8.20;99.90
53264;DHT22;39153;52.680;6.172;2024-03-23T10:52:03;8.30;99.90
53264;DHT22;39153;52.680;6.172;2024-03-23T10:54:30;8.50;99.90
53264;DHT22;39153;52.680;6.172;2024-03-23T10:57:09;8.70;99.90
53264;DHT22;39153;52.680;6.172;2024-03-23T10:59:37;8.90;99.90
53264;DHT22;39153;52.680;6.172;2024-03-23T11:02:03;9.10;99.90
53264;DHT22;39153;52.680;6.172;2024-03-23T11:04:30;9.10;99.90
53264;DHT22;39153;52.680;6.172;2024-03-23T11:06:56;9.00;99.90
53264;DHT22;39153;52.680;6.172;2024-03-23T11:09:38;8.70;99.90
53264;DHT22;39153;52.680;6.172;2024-03-23T11:15:11;8.10;99.90
53264;DHT22;39153;52.680;6.172;2024-03-23T11:17:36;8.00;99.90
53264;DHT22;39153;52.680;6.172;2024-03-23T11:20:03;8.20;99.90
53264;DHT22;39153;52.680;6.172;2024-03-23T11:22:44;8.40;99.90
53264;DHT22;39153;52.680;6.172;2024-03-23T11:25:14;8.80;99.90
53264;DHT22;39153;52.680;6.172;2024-03-23T11:27:40;9.20;99.90
53264;DHT22;39153;52.680;6.172;2024-03-23T11:30:12;9.40;99.90
53264;DHT22;39153;52.680;6.172;2024-03-23T11:32:38;9.60;99.90
53264;DHT22;39153;52.680;6.172;2024-03-23T11:35:04;9.70;99.90
53264;DHT22;39153;52.680;6.172;2024-03-23T11:37:30;9.40;99.90
53264;DHT22;39153;52.680;6.172;2024-03-23T11:39:56;9.30;99.90
53264;DHT22;39153;52.680;6.172;2024-03-23T11:42:21;9.30;99.90
53264;DHT22;39153;52.680;6.172;2024-03-23T11:44:47;9.60;99.90
53264;DHT22;39153;52.680;6.172;2024-03-23T11:47:13;9.80;99.90
53264;DHT22;39153;52.680;6.172;2024-03-23T11:49:38;9.90;99.90
53264;DHT22;39153;52.680;6.172;2024-03-23T11:52:07;9.90;99.90
53264;DHT22;39153;52.680;6.172;2024-03-23T11:54:33;9.60;99.90
53264;DHT22;39153;52.680;6.172;2024-03-23T11:57:00;9.40;99.90
53264;DHT22;39153;52.680;6.172;2024-03-23T12:02:06;8.70;99.90
53264;DHT22;39153;52.680;6.172;2024-03-23T12:04:32;8.40;99.90
53264;DHT22;39153;52.680;6.172;2024-03-23T12:07:19;8.30;99.90
53264;DHT22;39153;52.680;6.172;2024-03-23T12:09:46;8.60;99.90
53264;DHT22;39153;52.680;6.172;2024-03-23T12:12:18;9.10;99.90
53264;DHT22;39153;52.680;6.172;2024-03-23T12:15:06;9.50;99.90
53264;DHT22;39153;52.680;6.172;2024-03-23T12:17:34;9.70;99.90
53264;DHT22;39153;52.680;6.172;2024-03-23T12:20:03;9.70;99.90
53264;DHT22;39153;52.680;6.172;2024-03-23T12:22:29;9.30;99.90
53264;DHT22;39153;52.680;6.172;2024-03-23T12:24:57;8.80;99.90
53264;DHT22;39153;52.680;6.172;2024-03-23T12:27:23;8.40;99.90
53264;DHT22;39153;52.680;6.172;2024-03-23T12:29:49;7.80;99.90
53264;DHT22;39153;52.680;6.172;2024-03-23T12:32:14;7.10;99.90
53264;DHT22;39153;52.680;6.172;2024-03-23T12:34:40;6.60;99.90
53264;DHT22;39153;52.680;6.172;2024-03-23T12:37:07;6.50;99.90
53264;DHT22;39153;52.680;6.172;2024-03-23T12:39:32;6.70;99.90
53264;DHT22;39153;52.680;6.172;2024-03-23T12:41:58;7.10;99.90
53264;DHT22;39153;52.680;6.172;2024-03-23T12:44:24;7.40;99.90
53264;DHT22;39153;52.680;6.172;2024-03-23T12:46:49;7.70;99.90
53264;DHT22;39153;52.680;6.172;2024-03-23T12:49:15;7.90;99.90
53264;DHT22;39153;52.680;6.172;2024-03-23T12:51:53;8.30;99.90
53264;DHT22;39153;52.680;6.172;2024-03-23T12:54:19;8.70;99.90
53264;DHT22;39153;52.680;6.172;2024-03-23T12:56:46;9.00;99.90
53264;DHT22;39153;52.680;6.172;2024-03-23T12:59:11;9.40;99.90
53264;DHT22;39153;52.680;6.172;2024-03-23T13:01:38;9.70;99.90
53264;DHT22;39153;52.680;6.172;2024-03-23T13:04:04;10.00;99.90
53264;DHT22;39153;52.680;6.172;2024-03-23T13:06:30;10.40;99.90
53264;DHT22;39153;52.680;6.172;2024-03-23T13:09:00;10.40;99.90
53264;DHT22;39153;52.680;6.172;2024-03-23T13:11:27;9.90;99.90
53264;DHT22;39153;52.680;6.172;2024-03-23T13:13:52;9.50;99.90
53264;DHT22;39153;52.680;6.172;2024-03-23T13:16:18;9.20;99.90
53264;DHT22;39153;52.680;6.172;2024-03-23T13:18:44;9.10;99.90
53264;DHT22;39153;52.680;6.172;2024-03-23T13:21:09;8.60;99.90
53264;DHT22;39153;52.680;6.172;2024-03-23T13:23:35;8.60;99.90
53264;DHT22;39153;52.680;6.172;2024-03-23T13:26:01;8.80;99.90
53264;DHT22;39153;52.680;6.172;2024-03-23T13:28:28;8.90;99.90
53264;DHT22;39153;52.680;6.172;2024-03-23T13:30:55;8.80;99.90
53264;DHT22;39153;52.680;6.172;2024-03-23T13:33:21;8.60;99.90
53264;DHT22;39153;52.680;6.172;2024-03-23T13:35:54;8.60;99.90
53264;DHT22;39153;52.680;6.172;2024-03-23T13:38:21;8.70;99.90
53264;DHT22;39153;52.680;6.172;2024-03-23T13:40:56;9.00;99.90
53264;DHT22;39153;52.680;6.172;2024-03-23T13:43:23;9.30;99.90
53264;DHT22;39153;52.680;6.172;2024-03-23T13:45:53;9.50;99.90
53264;DHT22;39153;52.680;6.172;2024-03-23T13:48:20;9.50;99.90
53264;DHT22;39153;52.680;6.172;2024-03-23T13:50:46;9.40;99.90
53264;DHT22;39153;52.680;6.172;2024-03-23T13:53:15;9.40;99.90
53264;DHT22;39153;52.680;6.172;2024-03-23T13:55:47;9.20;99.90
53264;DHT22;39153;52.680;6.172;2024-03-23T13:58:16;9.10;99.90
53264;DHT22;39153;52.680;6.172;2024-03-23T14:00:41;9.00;99.90
53264;DHT22;39153;52.680;6.172;2024-03-23T14:03:10;8.60;99.90
53264;DHT22;39153;52.680;6.172;2024-03-23T14:05:37;7.60;99.90
53264;DHT22;39153;52.680;6.172;2024-03-23T14:08:09;6.80;99.90
53264;DHT22;39153;52.680;6.172;2024-03-23T14:10:36;6.60;99.90
53264;DHT22;39153;52.680;6.172;2024-03-23T14:13:02;6.90;99.90
53264;DHT22;39153;52.680;6.172;2024-03-23T14:15:31;7.10;99.90
53264;DHT22;39153;52.680;6.172;2024-03-23T14:17:57;7.20;99.90
53264;DHT22;39153;52.680;6.172;2024-03-23T14:20:23;7.40;99.90
53264;DHT22;39153;52.680;6.172;2024-03-23T14:22:49;7.80;99.90
53264;DHT22;39153;52.680;6.172;2024-03-23T14:25:15;8.00;99.90
53264;DHT22;39153;52.680;6.172;2024-03-23T14:27:41;8.20;99.90
53264;DHT22;39153;52.680;6.172;2024-03-23T14:30:09;8.60;99.90
53264;DHT22;39153;52.680;6.172;2024-03-23T14:32:35;8.80;99.90
53264;DHT22;39153;52.680;6.172;2024-03-23T14:35:01;9.00;99.90
53264;DHT22;39153;52.680;6.172;2024-03-23T14:37:27;9.30;99.90
53264;DHT22;39153;52.680;6.172;2024-03-23T14:39:53;9.40;99.90
53264;DHT22;39153;52.680;6.172;2024-03-23T14:42:20;9.60;99.90
53264;DHT22;39153;52.680;6.172;2024-03-23T14:44:46;9.70;99.90
53264;DHT22;39153;52.680;6.172;2024-03-23T14:47:12;9.70;99.90
53264;DHT22;39153;52.680;6.172;2024-03-23T14:49:38;9.60;99.90
53264;DHT22;39153;52.680;6.172;2024-03-23T14:52:04;9.70;99.90
53264;DHT22;39153;52.680;6.172;2024-03-23T14:54:29;9.60;99.90
53264;DHT22;39153;52.680;6.172;2024-03-23T14:56:55;9.70;99.90
53264;DHT22;39153;52.680;6.172;2024-03-23T14:59:24;9.90;99.90
53264;DHT22;39153;52.680;6.172;2024-03-23T15:01:49;10.00;99.90
53264;DHT22;39153;52.680;6.172;2024-03-23T15:04:15;9.90;99.90
53264;DHT22;39153;52.680;6.172;2024-03-23T15:06:41;9.80;99.90
53264;DHT22;39153;52.680;6.172;2024-03-23T15:09:07;9.30;99.90
53264;DHT22;39153;52.680;6.172;2024-03-23T15:11:37;8.90;99.90
53264;DHT22;39153;52.680;6.172;2024-03-23T15:14:02;8.70;99.90
53264;DHT22;39153;52.680;6.172;2024-03-23T15:16:28;8.90;99.90
53264;DHT22;39153;52.680;6.172;2024-03-23T15:18:54;8.80;99.90
53264;DHT22;39153;52.680;6.172;2024-03-23T15:21:19;8.80;99.90
53264;DHT22;39153;52.680;6.172;2024-03-23T15:23:47;8.80;99.90
53264;DHT22;39153;52.680;6.172;2024-03-23T15:26:13;8.80;99.90
53264;DHT22;39153;52.680;6.172;2024-03-23T15:28:39;9.00;99.90
53264;DHT22;39153;52.680;6.172;2024-03-23T15:31:23;8.60;99.90
53264;DHT22;39153;52.680;6.172;2024-03-23T15:33:49;8.60;99.90
53264;DHT22;39153;52.680;6.172;2024-03-23T15:36:14;8.50;99.90
53264;DHT22;39153;52.680;6.172;2024-03-23T15:38:40;8.40;99.90
53264;DHT22;39153;52.680;6.172;2024-03-23T15:41:06;8.30;99.90
53264;DHT22;39153;52.680;6.172;2024-03-23T15:43:33;8.10;99.90
53264;DHT22;39153;52.680;6.172;2024-03-23T15:46:00;8.20;99.90
53264;DHT22;39153;52.680;6.172;2024-03-23T15:48:30;8.20;99.90
53264;DHT22;39153;52.680;6.172;2024-03-23T15:50:57;8.40;99.90
53264;DHT22;39153;52.680;6.172;2024-03-23T15:53:24;8.50;99.90
53264;DHT22;39153;52.680;6.172;2024-03-23T15:55:56;8.40;99.90
53264;DHT22;39153;52.680;6.172;2024-03-23T15:58:23;8.30;99.90
53264;DHT22;39153;52.680;6.172;2024-03-23T16:00:59;8.20;99.90
53264;DHT22;39153;52.680;6.172;2024-03-23T16:03:26;8.00;99.90
53264;DHT22;39153;52.680;6.172;2024-03-23T16:05:56;7.90;99.90
53264;DHT22;39153;52.680;6.172;2024-03-23T16:08:23;7.80;99.90
53264;DHT22;39153;52.680;6.172;2024-03-23T16:10:49;7.60;99.90
53264;DHT22;39153;52.680;6.172;2024-03-23T16:13:15;7.30;99.90
53264;DHT22;39153;52.680;6.172;2024-03-23T16:15:41;7.20;99.90
53264;DHT22;39153;52.680;6.172;2024-03-23T16:18:07;7.20;99.90
53264;DHT22;39153;52.680;6.172;2024-03-23T16:20:33;7.20;99.90
53264;DHT22;39153;52.680;6.172;2024-03-23T16:23:03;7.20;99.90
53264;DHT22;39153;52.680;6.172;2024-03-23T16:25:29;7.30;99.90
53264;DHT22;39153;52.680;6.172;2024-03-23T16:27:55;7.60;99.90
53264;DHT22;39153;52.680;6.172;2024-03-23T16:30:21;7.80;99.90
53264;DHT22;39153;52.680;6.172;2024-03-23T16:32:47;8.20;99.90
53264;DHT22;39153;52.680;6.172;2024-03-23T16:35:13;8.30;99.90
53264;DHT22;39153;52.680;6.172;2024-03-23T16:37:40;8.20;99.90
53264;DHT22;39153;52.680;6.172;2024-03-23T16:40:06;8.10;99.90